Time;durP1;ratioP1;P1;durP2;ratioP2;P2;SDS_P1;SDS_P2;PMS_P1;PMS_P2;Temp;Humidity;BMP_temperature;BMP_pressure;BME280_temperature;BME280_humidity;BME280_pressure;Samples;Min_cycle;Max_cycle;Signal;HPM_P1;HPM_P2
2021/11/28 00:00:50;;;;;;;22.73;13.55;;;;;;;7.74;62.84;93529.03;5076769;28;20409;-73
2021/11/28 00:03:17;;;;;;;20.80;11.73;;;;;;;7.69;62.38;93502.78;5093778;28;20034;-73
2021/11/28 00:05:44;;;;;;;20.38;11.55;;;;;;;7.81;62.38;93512.81;5093601;28;20652;-72
2021/11/28 00:13:32;;;;;;;12.93;8.77;;;;;;;7.75;62.74;93505.63;5119697;27;20026;-72
2021/11/28 00:15:59;;;;;;;11.60;7.50;;;;;;;7.80;62.65;93507.75;5110288;28;20512;-73
2021/11/28 00:18:26;;;;;;;14.80;8.95;;;;;;;7.65;62.94;93486.75;5093031;28;20055;-74
2021/11/28 00:20:51;;;;;;;14.15;7.63;;;;;;;7.78;63.11;93501.94;5112399;27;20572;-72
2021/11/28 00:23:17;;;;;;;11.45;6.30;;;;;;;7.78;63.06;93496.78;5130834;27;20073;-72
2021/11/28 00:25:42;;;;;;;9.68;5.65;;;;;;;7.82;63.24;93487.75;5132407;27;20035;-73
2021/11/28 00:28:12;;;;;;;20.08;12.00;;;;;;;7.68;63.41;93494.22;5113690;28;20481;-73
2021/11/28 00:30:37;;;;;;;23.08;13.73;;;;;;;7.54;63.86;93492.09;5123606;27;20065;-73
2021/11/28 00:33:03;;;;;;;17.27;11.88;;;;;;;7.56;63.50;93498.75;5110233;28;20063;-73
2021/11/28 00:35:28;;;;;;;23.98;14.55;;;;;;;7.57;63.70;93497.78;5111833;28;20035;-73
2021/11/28 00:37:54;;;;;;;29.15;15.00;;;;;;;7.39;64.11;93494.31;5110094;28;20515;-73
2021/11/28 00:40:19;;;;;;;23.83;14.43;;;;;;;7.43;63.77;93500.81;5112520;28;20116;-73
2021/11/28 00:42:45;;;;;;;25.67;14.73;;;;;;;7.41;63.59;93491.56;5110125;28;20034;-73
2021/11/28 00:45:10;;;;;;;34.15;14.80;;;;;;;7.39;63.71;93486.56;5096078;28;20047;-73
2021/11/28 00:47:36;;;;;;;22.17;13.63;;;;;;;7.37;64.00;93491.03;5130588;28;20031;-73
2021/11/28 00:52:33;;;;;;;15.63;9.63;;;;;;;7.05;64.84;93492.19;5114551;28;20043;-73
2021/11/28 00:54:59;;;;;;;17.17;9.02;;;;;;;7.01;64.91;93495.19;5132471;27;20041;-73
2021/11/28 00:57:25;;;;;;;12.27;7.60;;;;;;;7.08;65.29;93496.28;5136028;27;20038;-73
2021/11/28 00:59:51;;;;;;;23.27;14.40;;;;;;;7.05;65.02;93499.09;5117480;27;20443;-73
2021/11/28 01:02:17;;;;;;;24.75;16.77;;;;;;;7.07;64.98;93498.00;5117832;27;20031;-74
2021/11/28 01:04:43;;;;;;;27.67;18.55;;;;;;;6.83;65.64;93495.06;5117286;27;20521;-73
2021/11/28 01:07:09;;;;;;;32.67;19.75;;;;;;;6.72;66.36;93483.13;5117272;27;20024;-73
2021/11/28 01:09:34;;;;;;;30.73;18.20;;;;;;;6.77;66.03;93487.84;5126162;27;20046;-73
2021/11/28 01:12:00;;;;;;;32.15;18.55;;;;;;;6.93;65.31;93490.69;5096713;28;20024;-73
2021/11/28 01:14:25;;;;;;;35.15;21.02;;;;;;;6.71;66.59;93482.31;5114896;28;20036;-73
2021/11/28 01:16:50;;;;;;;31.67;18.50;;;;;;;6.63;66.45;93477.00;5113779;28;20425;-73
2021/11/28 01:19:16;;;;;;;26.75;16.77;;;;;;;6.48;66.72;93479.16;5113565;28;20027;-73
2021/11/28 01:21:55;;;;;;;25.65;16.73;;;;;;;6.34;66.95;93464.06;5114981;28;20027;-74
2021/11/28 01:24:20;;;;;;;23.80;14.23;;;;;;;6.36;67.47;93463.94;5113309;27;20485;-73
2021/11/28 01:26:46;;;;;;;23.70;15.02;;;;;;;6.37;67.14;93471.53;5113539;28;20107;-72
2021/11/28 01:29:11;;;;;;;21.60;13.38;;;;;;;6.32;67.41;93458.22;5114822;28;20093;-73
2021/11/28 01:31:37;;;;;;;18.27;11.70;;;;;;;6.30;67.66;93449.03;5132016;27;20039;-73
2021/11/28 01:34:02;;;;;;;13.85;9.55;;;;;;;6.36;67.49;93446.72;5133677;27;20031;-73
2021/11/28 01:36:28;;;;;;;14.10;9.38;;;;;;;6.34;67.65;93435.69;5133744;27;20023;-73
2021/11/28 01:38:53;;;;;;;15.35;10.18;;;;;;;6.42;67.15;93437.59;5125897;27;20043;-73
2021/11/28 01:41:19;;;;;;;20.52;11.77;;;;;;;6.32;67.40;93465.97;5113341;28;20031;-73
2021/11/28 01:43:44;;;;;;;27.17;16.77;;;;;;;6.15;67.80;93482.91;5115504;27;20043;-73
2021/11/28 01:46:10;;;;;;;38.17;22.48;;;;;;;6.13;68.49;93500.28;5096155;28;20122;-73
2021/11/28 01:48:35;;;;;;;36.17;19.75;;;;;;;6.15;68.26;93488.06;5113200;28;20030;-73
2021/11/28 01:51:02;;;;;;;24.60;15.98;;;;;;;6.13;68.19;93494.28;5113166;28;20027;-73
2021/11/28 01:53:28;;;;;;;26.85;15.65;;;;;;;6.01;68.36;93488.44;5112767;27;20035;-73
2021/11/28 01:55:54;;;;;;;26.30;15.88;;;;;;;6.06;69.11;93488.06;5113156;28;20409;-73
2021/11/28 01:58:20;;;;;;;29.25;17.33;;;;;;;6.00;69.28;93474.75;5096030;28;20031;-76
2021/11/28 02:00:50;;;;;;;27.90;15.75;;;;;;;6.10;69.36;93492.81;5109305;27;20044;-74
2021/11/28 02:03:17;;;;;;;23.35;15.68;;;;;;;6.10;69.29;93495.41;5105840;27;20058;-75
2021/11/28 02:05:46;;;;;;;27.55;16.02;;;;;;;6.08;69.38;93505.03;5112997;28;20048;-75
2021/11/28 02:08:12;;;;;;;24.65;15.77;;;;;;;6.15;68.90;93505.31;5113159;28;20031;-75
2021/11/28 02:10:37;;;;;;;24.20;15.25;;;;;;;6.09;69.07;93508.41;5112467;28;20043;-75
2021/11/28 02:13:03;;;;;;;23.52;14.65;;;;;;;6.13;68.97;93514.91;5114122;28;20027;-75
2021/11/28 02:15:28;;;;;;;26.65;14.32;;;;;;;6.04;69.01;93503.63;5090552;28;20043;-75
2021/11/28 02:17:55;;;;;;;21.40;14.52;;;;;;;5.76;69.31;93466.50;5113223;28;20024;-75
2021/11/28 02:20:26;;;;;;;20.45;13.93;;;;;;;5.94;69.20;93497.66;5113248;28;20072;-75
2021/11/28 02:22:51;;;;;;;24.13;14.05;;;;;;;6.04;69.47;93462.38;5115773;27;20027;-75
2021/11/28 02:25:17;;;;;;;20.63;12.68;;;;;;;6.00;68.79;93485.06;5099400;27;20127;-75
2021/11/28 02:27:42;;;;;;;22.88;13.70;;;;;;;6.03;69.12;93483.97;5131586;27;20026;-75
2021/11/28 02:30:08;;;;;;;23.42;14.55;;;;;;;6.13;69.35;93486.56;5099130;27;20035;-75
2021/11/28 02:32:34;;;;;;;20.60;12.35;;;;;;;6.08;69.22;93458.63;5116062;27;20022;-75
2021/11/28 02:34:59;;;;;;;18.85;12.48;;;;;;;6.21;68.79;93472.09;5133312;27;20032;-75
2021/11/28 02:37:25;;;;;;;20.58;11.65;;;;;;;6.24;68.51;93456.34;5114300;27;20058;-75
2021/11/28 02:39:51;;;;;;;18.92;11.60;;;;;;;6.24;68.58;93446.03;5112612;28;20049;-75
2021/11/28 02:42:18;;;;;;;17.65;12.02;;;;;;;6.21;69.02;93446.28;5106785;28;20039;-75
2021/11/28 02:44:44;;;;;;;21.95;12.43;;;;;;;6.22;68.52;93437.59;5095709;28;20477;-74
2021/11/28 02:47:09;;;;;;;18.30;12.27;;;;;;;6.27;68.56;93421.72;5095469;28;20148;-75
2021/11/28 02:49:35;;;;;;;18.75;11.90;;;;;;;6.22;68.61;93418.75;5115840;27;20046;-75
2021/11/28 02:52:00;;;;;;;19.25;12.45;;;;;;;6.21;68.64;93411.94;5098515;27;20031;-75
2021/11/28 02:54:25;;;;;;;15.20;11.05;;;;;;;6.19;68.66;93401.75;5134287;27;20040;-74
2021/11/28 02:56:51;;;;;;;22.90;14.43;;;;;;;6.14;68.90;93414.25;5132537;27;20030;-75
2021/11/28 02:59:16;;;;;;;20.10;13.90;;;;;;;6.04;68.90;93423.72;5132502;27;20034;-75
2021/11/28 03:01:42;;;;;;;27.08;16.92;;;;;;;6.06;69.22;93426.97;5098409;27;20493;-75
2021/11/28 03:04:07;;;;;;;22.83;15.35;;;;;;;6.12;69.20;93431.59;5113419;27;20036;-75
2021/11/28 03:06:33;;;;;;;26.00;17.42;;;;;;;6.06;69.29;93426.97;5132320;27;20026;-75
2021/11/28 03:08:58;;;;;;;23.73;15.63;;;;;;;5.99;69.76;93413.00;5132221;27;20039;-74
2021/11/28 03:11:24;;;;;;;20.15;13.27;;;;;;;6.05;69.90;93425.38;5115167;27;20023;-74
2021/11/28 03:13:51;;;;;;;18.05;11.85;;;;;;;5.89;70.04;93399.25;5132238;27;20028;-75
2021/11/28 03:16:19;;;;;;;17.85;11.82;;;;;;;6.11;69.81;93404.19;5114690;27;20027;-75
2021/11/28 03:18:45;;;;;;;25.25;15.50;;;;;;;6.02;70.18;93394.69;5132046;27;20035;-75
2021/11/28 03:21:12;;;;;;;23.00;13.90;;;;;;;6.08;70.27;93414.78;5131944;27;20015;-74
2021/11/28 03:23:38;;;;;;;29.75;17.63;;;;;;;6.14;69.83;93409.09;5115178;27;20038;-74
2021/11/28 03:26:13;;;;;;;32.75;19.10;;;;;;;6.07;70.28;93407.16;5132199;27;20027;-74
2021/11/28 03:28:44;;;;;;;27.48;17.30;;;;;;;5.88;70.78;93392.44;5132780;27;20110;-75
2021/11/28 03:31:10;;;;;;;25.17;16.02;;;;;;;5.76;71.20;93356.50;5115196;27;20492;-75
2021/11/28 03:33:37;;;;;;;28.73;19.05;;;;;;;5.96;70.86;93366.84;5114744;27;20099;-75
2021/11/28 03:36:02;;;;;;;29.80;17.88;;;;;;;5.93;71.12;93370.50;5093497;28;20035;-75
2021/11/28 03:38:28;;;;;;;25.55;15.00;;;;;;;5.90;70.79;93382.84;5111466;28;20508;-75
2021/11/28 03:40:53;;;;;;;21.77;15.00;;;;;;;5.84;70.59;93368.72;5093863;28;20019;-76
2021/11/28 03:43:19;;;;;;;22.90;14.55;;;;;;;5.92;70.63;93366.28;5111311;28;20027;-75
2021/11/28 03:45:44;;;;;;;24.05;15.05;;;;;;;5.98;70.29;93375.28;5111482;28;20578;-75
2021/11/28 03:48:10;;;;;;;19.25;12.85;;;;;;;5.86;70.80;93390.03;5111263;28;20019;-75
2021/11/28 03:50:36;;;;;;;20.70;12.00;;;;;;;5.78;70.59;93397.59;5126914;27;20035;-75
2021/11/28 03:53:01;;;;;;;17.95;11.65;;;;;;;5.86;70.40;93418.38;5085278;28;20449;-76
2021/11/28 03:55:27;;;;;;;18.42;12.07;;;;;;;5.72;70.57;93437.59;5111240;28;20038;-74
2021/11/28 03:57:52;;;;;;;21.10;11.63;;;;;;;5.85;70.50;93464.88;5095460;27;20493;-74
2021/11/28 04:00:18;;;;;;;19.20;11.57;;;;;;;5.76;71.13;93472.47;5132816;27;20404;-74
2021/11/28 04:02:43;;;;;;;20.80;12.25;;;;;;;5.80;71.26;93486.72;5114436;27;20023;-74
2021/11/28 04:05:09;;;;;;;19.77;11.95;;;;;;;5.85;71.37;93500.97;5084584;28;20058;-75
2021/11/28 04:07:34;;;;;;;20.67;12.95;;;;;;;6.00;70.93;93507.44;5093923;28;20394;-75
2021/11/28 04:10:00;;;;;;;20.85;13.25;;;;;;;6.00;71.48;93523.72;5110758;28;20590;-75
2021/11/28 04:12:25;;;;;;;24.05;13.82;;;;;;;6.04;71.96;93529.41;5093696;28;20416;-75
2021/11/28 04:14:51;;;;;;;22.17;13.93;;;;;;;6.12;71.55;93533.94;5110924;28;20500;-74
2021/11/28 04:17:16;;;;;;;19.13;12.32;;;;;;;6.22;71.05;93553.66;5093634;28;20068;-74
2021/11/28 04:19:42;;;;;;;16.98;11.10;;;;;;;6.25;71.53;93553.38;5093581;28;20394;-74
2021/11/28 04:22:07;;;;;;;20.98;11.77;;;;;;;6.41;70.91;93564.97;5093549;28;20030;-74
2021/11/28 04:24:33;;;;;;;18.60;11.23;;;;;;;6.64;70.20;93540.56;5076786;28;20347;-75
2021/11/28 04:26:58;;;;;;;14.98;8.02;;;;;;;6.74;70.04;93519.09;5111835;28;20168;-75
2021/11/28 04:29:24;;;;;;;11.45;6.85;;;;;;;6.90;69.90;93516.78;5076181;28;20474;-75
2021/11/28 04:31:49;;;;;;;17.98;10.02;;;;;;;6.98;69.21;93521.28;5110728;28;20038;-75
2021/11/28 04:34:16;;;;;;;20.67;13.07;;;;;;;7.21;68.44;93539.88;5113238;27;20031;-75
2021/11/28 04:36:42;;;;;;;22.73;14.23;;;;;;;7.07;68.31;93523.03;5130779;27;20019;-75
2021/11/28 04:39:07;;;;;;;63.55;30.23;;;;;;;7.05;68.52;93554.16;5113698;28;20485;-75
2021/11/28 04:41:33;;;;;;;39.55;20.77;;;;;;;6.92;68.84;93545.88;5132343;27;20034;-75
2021/11/28 04:43:58;;;;;;;28.95;15.10;;;;;;;6.81;69.10;93533.91;5131587;27;20481;-74
2021/11/28 04:46:24;;;;;;;19.92;11.57;;;;;;;6.80;69.03;93526.28;5113509;28;20412;-75
2021/11/28 04:48:49;;;;;;;21.63;12.77;;;;;;;6.80;68.96;93554.69;5113596;28;20039;-75
2021/11/28 04:51:14;;;;;;;21.98;13.55;;;;;;;6.74;69.09;93568.13;5111222;28;20406;-75
2021/11/28 04:53:40;;;;;;;26.60;18.65;;;;;;;6.68;69.09;93548.84;5110327;28;20046;-74
2021/11/28 04:56:05;;;;;;;23.30;15.15;;;;;;;6.68;69.15;93566.91;5092987;28;20027;-75
2021/11/28 04:58:31;;;;;;;21.95;15.10;;;;;;;6.59;68.98;93545.31;5093054;28;20490;-75
2021/11/28 05:00:56;;;;;;;24.77;14.88;;;;;;;6.52;68.82;93566.59;5109947;28;20413;-75
2021/11/28 05:03:22;;;;;;;21.08;12.23;;;;;;;6.38;69.16;93522.19;5092925;28;20027;-74
2021/11/28 05:05:47;;;;;;;18.77;11.48;;;;;;;6.53;69.13;93543.25;5116975;27;20190;-75
2021/11/28 05:08:13;;;;;;;15.10;10.45;;;;;;;6.52;69.30;93518.41;5112744;28;20026;-75
2021/11/28 05:10:38;;;;;;;20.02;11.27;;;;;;;6.25;68.95;93498.41;5121019;27;20031;-75
2021/11/28 05:13:04;;;;;;;18.80;10.50;;;;;;;6.41;69.00;93534.00;5152342;27;20082;-75
2021/11/28 05:15:29;;;;;;;17.50;11.85;;;;;;;6.28;68.70;93533.44;5133936;27;20039;-75
2021/11/28 05:17:54;;;;;;;20.38;10.93;;;;;;;6.20;69.02;93557.31;5116534;27;20110;-75
2021/11/28 05:20:20;;;;;;;17.58;10.43;;;;;;;6.19;68.91;93563.41;5110647;28;20039;-76
2021/11/28 05:22:45;;;;;;;18.23;10.02;;;;;;;6.14;69.31;93566.38;5117794;27;20023;-74
2021/11/28 05:25:11;;;;;;;15.13;9.38;;;;;;;6.12;68.84;93570.84;5131420;27;20037;-74
2021/11/28 05:27:37;;;;;;;15.10;10.10;;;;;;;6.04;69.37;93560.34;5120624;27;20026;-73
2021/11/28 05:30:03;;;;;;;17.65;10.10;;;;;;;6.03;69.56;93551.81;5094256;27;20042;-76
2021/11/28 05:32:29;;;;;;;21.77;11.50;;;;;;;6.03;69.81;93561.31;5129879;27;20031;-75
2021/11/28 05:34:54;;;;;;;42.13;17.25;;;;;;;5.92;70.34;93558.81;5139703;27;20027;-76
2021/11/28 05:37:20;;;;;;;33.92;17.30;;;;;;;5.82;69.89;93562.16;5129984;27;20046;-76
2021/11/28 05:39:45;;;;;;;31.27;17.00;;;;;;;5.75;70.48;93584.22;5110747;27;20045;-74
2021/11/28 05:42:11;;;;;;;36.92;21.73;;;;;;;5.52;72.11;93568.09;5115065;27;20020;-75
2021/11/28 05:44:37;;;;;;;30.23;17.77;;;;;;;5.53;71.97;93553.47;5115995;27;20078;-74
2021/11/28 05:47:02;;;;;;;26.50;16.60;;;;;;;5.54;70.99;93529.31;5099526;27;20025;-74
2021/11/28 05:49:28;;;;;;;28.38;16.25;;;;;;;5.40;72.88;93511.63;5128381;27;20058;-73
2021/11/28 05:51:53;;;;;;;27.38;15.52;;;;;;;5.48;71.28;93496.34;5116415;27;20031;-73
2021/11/28 05:54:19;;;;;;;26.48;15.48;;;;;;;5.46;71.73;93487.94;5146301;27;20384;-73
2021/11/28 05:56:44;;;;;;;12.25;7.40;;;;;;;5.70;72.40;93483.28;5097917;27;20034;-73
2021/11/28 05:59:10;;;;;;;6.80;3.33;;;;;;;6.31;72.56;93489.31;5112339;27;20038;-73
2021/11/28 06:01:35;;;;;;;12.43;7.82;;;;;;;6.61;70.70;93512.44;5133553;27;20023;-72
2021/11/28 06:04:00;;;;;;;27.58;14.68;;;;;;;6.70;69.29;93523.72;5112022;28;20047;-73
2021/11/28 06:06:26;;;;;;;26.00;15.20;;;;;;;6.65;69.56;93541.38;5112983;27;20421;-73
2021/11/28 06:08:52;;;;;;;21.33;12.10;;;;;;;6.53;69.58;93526.97;5126425;27;20476;-73
2021/11/28 06:11:18;;;;;;;18.85;12.07;;;;;;;6.64;69.43;93537.97;5098874;27;20059;-74
2021/11/28 06:13:43;;;;;;;19.40;10.80;;;;;;;6.61;69.72;93556.31;5113670;27;20054;-73
2021/11/28 06:16:09;;;;;;;24.50;13.73;;;;;;;6.69;69.77;93548.72;5122757;27;20035;-73
2021/11/28 06:18:34;;;;;;;17.00;12.45;;;;;;;6.77;69.04;93570.44;5125158;27;20035;-73
2021/11/28 06:21:00;;;;;;;29.92;14.52;;;;;;;6.75;69.43;93556.88;5133448;27;20038;-73
2021/11/28 06:23:25;;;;;;;19.25;9.95;;;;;;;6.71;69.74;93538.25;5128345;27;20035;-72
2021/11/28 06:25:51;;;;;;;16.95;8.52;;;;;;;6.79;69.61;93568.56;5113946;27;20060;-72
2021/11/28 06:28:16;;;;;;;15.43;9.70;;;;;;;6.98;68.71;93560.00;5122796;27;20019;-73
2021/11/28 06:30:41;;;;;;;23.23;13.27;;;;;;;6.80;69.27;93568.44;5113525;27;20050;-74
2021/11/28 06:33:07;;;;;;;20.02;12.32;;;;;;;6.70;69.73;93560.66;5112017;28;20088;-74
2021/11/28 06:35:32;;;;;;;25.60;13.75;;;;;;;6.72;69.50;93558.78;5112655;27;20108;-73
2021/11/28 06:37:58;;;;;;;20.33;11.55;;;;;;;6.81;68.77;93567.47;5121077;27;21321;-74
2021/11/28 06:40:23;;;;;;;23.20;12.23;;;;;;;6.93;68.48;93593.97;5132735;27;20046;-75
2021/11/28 06:42:49;;;;;;;21.10;11.63;;;;;;;6.82;68.92;93607.81;5135688;27;20084;-73
2021/11/28 06:45:14;;;;;;;23.00;13.82;;;;;;;6.80;68.89;93611.47;5133460;27;20505;-74
2021/11/28 06:47:40;;;;;;;21.90;12.25;;;;;;;6.90;68.53;93595.06;5132064;27;20542;-74
2021/11/28 06:50:06;;;;;;;19.63;12.95;;;;;;;6.98;68.30;93609.06;5114650;27;20027;-73
2021/11/28 06:52:32;;;;;;;15.45;8.90;;;;;;;7.05;68.27;93612.72;5106588;27;20031;-74
2021/11/28 06:54:57;;;;;;;18.88;9.85;;;;;;;7.08;68.02;93597.81;5126938;27;20527;-74
2021/11/28 06:57:22;;;;;;;19.63;11.43;;;;;;;7.14;67.75;93597.25;5123029;27;20042;-74
2021/11/28 06:59:48;;;;;;;19.42;11.27;;;;;;;7.10;67.97;93606.22;5111845;27;20031;-73
2021/11/28 07:02:13;;;;;;;17.33;11.48;;;;;;;7.05;67.79;93585.16;5131654;27;20409;-74
2021/11/28 07:04:40;;;;;;;18.35;10.15;;;;;;;7.21;67.44;93597.50;5130204;27;20525;-74
2021/11/28 07:07:06;;;;;;;17.30;9.35;;;;;;;7.17;67.61;93606.50;5111155;28;20080;-73
2021/11/28 07:09:31;;;;;;;14.35;9.07;;;;;;;7.31;67.12;93605.28;5108726;27;20034;-73
2021/11/28 07:11:56;;;;;;;16.98;9.60;;;;;;;7.26;67.20;93605.66;5131421;27;20410;-73
2021/11/28 07:14:22;;;;;;;12.85;8.38;;;;;;;7.21;67.37;93630.28;5129547;27;20398;-73
2021/11/28 07:16:47;;;;;;;13.30;8.98;;;;;;;7.27;66.81;93621.97;5116630;27;20039;-73
2021/11/28 07:19:13;;;;;;;17.65;8.50;;;;;;;7.30;66.78;93614.78;5139824;27;20035;-73
2021/11/28 07:21:38;;;;;;;13.35;7.57;;;;;;;7.63;66.02;93604.94;5135253;27;20147;-73
2021/11/28 07:24:04;;;;;;;12.90;7.15;;;;;;;7.69;65.90;93607.00;5153082;27;20034;-73
2021/11/28 07:26:29;;;;;;;14.30;7.18;;;;;;;7.99;65.08;93620.66;5131662;27;20027;-73
2021/11/28 07:28:55;;;;;;;12.15;6.80;;;;;;;8.15;64.92;93627.84;5142376;27;20031;-74
2021/11/28 07:31:20;;;;;;;11.75;7.20;;;;;;;8.48;63.87;93616.19;5131994;27;20038;-73
2021/11/28 07:33:46;;;;;;;10.73;6.63;;;;;;;8.43;63.89;93593.31;5114057;27;20087;-73
2021/11/28 07:36:11;;;;;;;15.93;8.85;;;;;;;8.65;63.28;93597.28;5124568;27;20428;-74
2021/11/28 07:38:38;;;;;;;15.18;8.10;;;;;;;9.37;60.97;93592.97;5123126;27;20118;-73
2021/11/28 07:41:04;;;;;;;14.70;9.43;;;;;;;9.03;62.04;93574.69;5124372;27;20035;-74
2021/11/28 07:43:30;;;;;;;44.05;23.70;;;;;;;9.27;61.73;93575.88;5129683;27;20043;-73
2021/11/28 07:45:55;;;;;;;45.05;23.70;;;;;;;9.49;60.85;93582.38;5125271;27;20023;-74
2021/11/28 07:48:21;;;;;;;33.83;23.85;;;;;;;9.25;61.22;93573.44;5125060;27;20023;-73
2021/11/28 07:50:47;;;;;;;27.80;17.98;;;;;;;8.64;63.30;93550.84;5094985;27;20189;-74
2021/11/28 07:53:14;;;;;;;27.33;16.15;;;;;;;8.92;63.07;93591.25;5107251;27;20508;-73
2021/11/28 07:55:39;;;;;;;25.80;17.58;;;;;;;9.12;62.69;93586.75;5134547;27;20039;-73
2021/11/28 07:58:05;;;;;;;20.25;12.07;;;;;;;9.25;62.09;93570.00;5114402;27;20050;-74
2021/11/28 08:00:31;;;;;;;20.65;14.10;;;;;;;9.21;62.69;93571.28;5091633;27;20030;-73
2021/11/28 08:02:56;;;;;;;21.98;14.40;;;;;;;9.15;62.09;93546.78;5106993;27;20123;-73
2021/11/28 08:05:22;;;;;;;18.23;12.20;;;;;;;9.41;62.00;93572.75;5122143;27;20066;-73
2021/11/28 08:07:47;;;;;;;17.63;12.63;;;;;;;9.56;61.49;93575.63;5124072;27;20493;-74
2021/11/28 08:10:13;;;;;;;16.90;11.52;;;;;;;9.70;61.01;93582.84;5087038;27;20055;-74
2021/11/28 08:12:38;;;;;;;7.07;4.70;;;;;;;9.97;60.13;93581.06;5122754;27;20183;-75
2021/11/28 08:15:06;;;;;;;6.60;3.53;;;;;;;10.12;59.88;93569.16;5128958;27;20490;-76
2021/11/28 08:17:34;;;;;;;7.25;3.88;;;;;;;10.21;59.57;93563.03;5130101;27;20035;-74
2021/11/28 08:20:00;;;;;;;5.60;3.80;;;;;;;10.19;59.29;93539.00;5094015;27;20027;-73
2021/11/28 08:22:25;;;;;;;5.30;3.55;;;;;;;10.40;58.95;93549.03;5092386;28;20028;-74
2021/11/28 08:24:51;;;;;;;6.95;4.15;;;;;;;10.52;58.54;93562.53;5108541;27;20860;-73
2021/11/28 08:27:18;;;;;;;8.55;3.65;;;;;;;10.70;58.39;93570.25;5107048;28;20020;-74
2021/11/28 08:29:46;;;;;;;8.18;4.47;;;;;;;10.85;57.53;93591.22;5110756;27;20059;-74
2021/11/28 08:32:12;;;;;;;7.90;4.10;;;;;;;10.95;57.66;93584.13;5079553;28;20461;-74
2021/11/28 08:34:38;;;;;;;8.13;4.15;;;;;;;10.99;57.40;93585.41;5103048;27;20043;-74
2021/11/28 08:37:04;;;;;;;7.65;4.68;;;;;;;10.97;57.46;93592.53;5136807;27;20069;-76
2021/11/28 08:39:30;;;;;;;6.40;4.50;;;;;;;11.08;57.57;93575.84;5138837;27;20038;-74
2021/11/28 08:41:55;;;;;;;8.60;4.18;;;;;;;11.04;57.22;93585.75;5106753;28;20038;-73
2021/11/28 08:44:21;;;;;;;7.20;4.20;;;;;;;11.09;57.71;93580.91;5095055;28;20028;-73
2021/11/28 08:46:47;;;;;;;26.05;10.73;;;;;;;11.27;57.45;93579.94;5122397;28;20516;-73
2021/11/28 08:49:12;;;;;;;6.60;4.20;;;;;;;11.24;57.22;93580.25;5129432;28;20477;-74
2021/11/28 08:51:38;;;;;;;7.20;4.18;;;;;;;11.24;57.04;93568.06;5118018;28;20111;-73
2021/11/28 08:54:03;;;;;;;8.50;4.90;;;;;;;11.25;57.53;93564.47;5122275;28;20039;-72
2021/11/28 08:56:29;;;;;;;8.88;4.82;;;;;;;11.34;57.78;93555.75;5107135;28;20027;-74
2021/11/28 08:58:54;;;;;;;9.48;4.97;;;;;;;11.46;56.97;93543.22;5122516;28;20044;-73
2021/11/28 09:01:20;;;;;;;9.50;4.47;;;;;;;11.42;57.81;93549.69;5100032;28;20015;-74
2021/11/28 09:03:45;;;;;;;8.35;5.20;;;;;;;11.42;57.18;93557.50;5122508;28;20043;-73
2021/11/28 09:06:14;;;;;;;9.55;4.72;;;;;;;11.50;57.07;93557.50;5118742;27;20108;-73
2021/11/28 09:08:39;;;;;;;7.78;4.45;;;;;;;11.56;57.77;93571.66;5109560;28;20590;-73
2021/11/28 09:11:05;;;;;;;8.45;6.13;;;;;;;11.62;57.05;93581.41;5109762;28;20031;-73
2021/11/28 09:13:34;;;;;;;10.07;5.85;;;;;;;11.73;57.15;93582.84;5092712;28;20035;-73
2021/11/28 09:16:00;;;;;;;13.68;7.32;;;;;;;11.77;56.68;93612.78;5112373;28;20020;-72
2021/11/28 09:18:35;;;;;;;13.38;6.93;;;;;;;11.78;56.80;93606.59;5114880;28;20031;-72
2021/11/28 09:21:01;;;;;;;9.00;5.57;;;;;;;11.77;56.82;93587.56;5113700;28;20031;-72
2021/11/28 09:26:11;;;;;;;10.20;6.03;;;;;;;11.88;54.75;93576.06;5114798;28;20088;-73
2021/11/28 09:28:37;;;;;;;9.35;6.68;;;;;;;11.89;55.67;93546.44;5113564;28;20031;-72
2021/11/28 09:31:05;;;;;;;11.13;8.25;;;;;;;12.08;54.81;93550.47;5105196;28;20035;-72
2021/11/28 09:33:30;;;;;;;13.52;6.85;;;;;;;12.05;54.82;93538.59;5121750;27;20076;-72
2021/11/28 09:35:56;;;;;;;12.88;6.82;;;;;;;12.13;55.16;93552.59;5097812;27;20465;-73
2021/11/28 09:38:21;;;;;;;12.57;6.45;;;;;;;12.17;55.43;93552.06;5125438;27;20028;-73
2021/11/28 09:40:47;;;;;;;13.85;7.68;;;;;;;12.11;55.25;93549.34;5111317;27;20035;-73
2021/11/28 09:43:13;;;;;;;17.88;9.45;;;;;;;12.15;55.45;93532.41;5134262;27;20031;-73
2021/11/28 09:45:38;;;;;;;25.08;11.48;;;;;;;12.15;55.46;93533.22;5154688;27;20047;-73
2021/11/28 09:48:04;;;;;;;15.60;10.07;;;;;;;12.14;55.68;93535.97;5137229;27;20037;-73
2021/11/28 09:50:30;;;;;;;14.50;8.73;;;;;;;12.15;56.22;93535.81;5154288;27;20027;-72
2021/11/28 09:52:55;;;;;;;15.93;8.15;;;;;;;12.18;56.29;93539.88;5155604;27;20487;-72
2021/11/28 09:55:21;;;;;;;19.70;12.25;;;;;;;12.26;55.74;93537.25;5137091;27;20674;-73
2021/11/28 09:57:46;;;;;;;21.33;10.98;;;;;;;12.25;55.32;93514.78;5137006;27;20026;-73
2021/11/28 10:00:13;;;;;;;13.40;8.52;;;;;;;12.27;55.20;93533.66;5154269;27;20077;-73
2021/11/28 10:02:38;;;;;;;16.50;7.70;;;;;;;12.21;54.53;93521.31;5155389;27;20045;-73
2021/11/28 10:05:06;;;;;;;10.38;6.68;;;;;;;12.27;54.88;93513.63;5153888;27;20572;-73
2021/11/28 10:07:32;;;;;;;9.65;5.75;;;;;;;12.37;53.69;93513.44;5154003;27;20163;-73
2021/11/28 10:09:57;;;;;;;14.60;5.90;;;;;;;12.43;53.80;93507.56;5154106;27;20038;-73
2021/11/28 10:12:27;;;;;;;9.93;6.07;;;;;;;12.42;53.75;93485.09;5136790;27;20034;-74
2021/11/28 10:14:58;;;;;;;10.63;7.18;;;;;;;12.43;54.21;93493.72;5153900;27;20050;-73
2021/11/28 10:17:27;;;;;;;16.50;7.40;;;;;;;12.51;53.77;93478.06;5154013;27;20393;-73
2021/11/28 10:19:52;;;;;;;15.60;8.40;;;;;;;12.52;53.91;93496.13;5136955;27;20052;-73
2021/11/28 10:22:18;;;;;;;19.45;10.18;;;;;;;12.56;54.08;93480.13;5153736;27;20027;-73
2021/11/28 10:24:51;;;;;;;25.10;12.88;;;;;;;12.59;54.22;93485.84;5119375;27;20030;-71
2021/11/28 10:27:17;;;;;;;12.95;6.97;;;;;;;12.55;54.39;93470.72;5153682;27;20061;-71
2021/11/28 10:29:42;;;;;;;15.93;8.30;;;;;;;12.53;53.48;93466.47;5153792;27;20437;-73
2021/11/28 10:32:10;;;;;;;11.77;7.90;;;;;;;12.49;55.20;93470.41;5153753;27;20449;-72
2021/11/28 10:34:37;;;;;;;20.15;16.58;;;;;;;12.57;54.09;93443.50;5153647;27;20027;-73
2021/11/28 10:37:10;;;;;;;12.18;6.50;;;;;;;12.42;52.82;93429.59;5153574;27;20042;-73
2021/11/28 10:39:43;;;;;;;12.70;6.50;;;;;;;12.45;52.58;93442.25;5153526;27;20058;-73
2021/11/28 10:42:10;;;;;;;17.65;7.85;;;;;;;12.46;53.57;93442.09;5146143;27;20077;-73
2021/11/28 10:44:36;;;;;;;14.32;8.07;;;;;;;12.41;53.86;93451.41;5114376;27;20073;-71
2021/11/28 10:47:12;;;;;;;14.15;7.10;;;;;;;12.46;54.14;93449.91;5124721;27;20034;-71
2021/11/28 10:49:38;;;;;;;11.75;5.13;;;;;;;12.49;53.74;93454.78;5130688;27;20229;-72
2021/11/28 10:52:14;;;;;;;10.90;6.28;;;;;;;12.53;53.79;93437.00;5104113;27;20515;-74
2021/11/28 10:54:44;;;;;;;15.23;6.63;;;;;;;12.53;53.95;93440.41;5107375;27;20023;-72
2021/11/28 10:57:14;;;;;;;17.50;9.85;;;;;;;12.57;53.81;93458.34;5118188;27;20099;-72
2021/11/28 10:59:40;;;;;;;15.60;8.38;;;;;;;12.57;53.77;93434.91;5117479;27;20079;-71
2021/11/28 11:02:27;;;;;;;13.65;7.13;;;;;;;12.65;53.65;93463.50;5107479;27;20542;-72
2021/11/28 11:04:54;;;;;;;22.35;9.70;;;;;;;12.58;52.90;93475.59;5124193;27;20104;-72
2021/11/28 11:07:21;;;;;;;8.55;4.38;;;;;;;12.65;48.23;93469.53;5124848;27;20031;-72
2021/11/28 11:09:47;;;;;;;6.82;3.00;;;;;;;12.86;44.58;93463.66;5115725;27;20026;-72
2021/11/28 11:12:17;;;;;;;6.35;2.65;;;;;;;12.96;44.35;93497.34;5127279;27;20132;-72
2021/11/28 11:14:43;;;;;;;5.97;2.45;;;;;;;13.15;41.82;93499.47;5129629;27;20031;-72
2021/11/28 11:17:10;;;;;;;4.40;1.70;;;;;;;13.14;42.20;93521.31;5125560;27;20058;-70
2021/11/28 11:19:36;;;;;;;8.93;5.22;;;;;;;13.23;43.05;93511.63;5089821;27;20034;-72
2021/11/28 11:22:12;;;;;;;6.13;2.40;;;;;;;13.30;41.45;93536.06;5133128;27;20027;-72
2021/11/28 11:24:42;;;;;;;5.80;2.20;;;;;;;13.32;42.26;93522.88;5130370;27;20042;-72
2021/11/28 11:27:11;;;;;;;3.97;1.73;;;;;;;13.37;42.67;93523.97;5114356;27;20338;-72
2021/11/28 11:29:37;;;;;;;6.10;4.50;;;;;;;13.50;41.63;93501.69;5129708;27;20092;-72
2021/11/28 11:32:08;;;;;;;3.95;1.50;;;;;;;13.60;40.42;93510.06;5122930;27;20020;-72